Alcala del Valle, Spain
Current Conditions -  °F | °C
As of 10:00 AM on Monday 20 Oct 2014 (Local Time) from LEMO Reporting Station
Clear Clear  
Wind Chill: 70°   Ceiling: Unl
Heat Index: 70°   Visibility: 6mi
Dew Point: 50°   Wind: 7mph
Humidity: 49%   Direction: 60°ENE
Pressure: 30.03"   Gusts: NA
Location:  36.9°N, 5.17°W
Report Text: LEMO 200800Z 06006KT CAVOK 21/10 Q1017 NOSIG
Loading
Personal Weather Stations






























Interactive Weather Map
Tropical Storm Tracking
New forecast layout! Learn more

10-Day Weather Forecast

Advertisements
Track Severe Weather on mobile